Time;durP1;ratioP1;P1;durP2;ratioP2;P2;SDS_P1;SDS_P2;PMS_P1;PMS_P2;Temp;Humidity;BMP_temperature;BMP_pressure;BME280_temperature;BME280_humidity;BME280_pressure;Samples;Min_cycle;Max_cycle;Signal;HPM_P1;HPM_P2
2023/12/13 00:05:22;;;;;;;5.05;1.50;;;;;;;10.08;99.14;97671.53;7234199;40;20250;31
2023/12/13 00:10:57;;;;;;;3.60;1.43;;;;;;;10.04;99.00;97651.44;7118220;41;20542;31
2023/12/13 00:21:18;;;;;;;2.37;1.37;;;;;;;10.04;98.59;97659.50;7237050;40;20274;31
2023/12/13 00:31:57;;;;;;;2.00;1.10;;;;;;;9.94;98.51;97639.16;7272301;39;20300;31
2023/12/13 00:37:32;;;;;;;4.70;1.35;;;;;;;9.89;98.54;97649.69;7257997;40;20256;31
2023/12/13 00:43:08;;;;;;;4.30;1.30;;;;;;;9.84;98.70;97644.09;7223172;40;20234;31
2023/12/13 00:48:42;;;;;;;3.45;1.25;;;;;;;9.81;98.23;97646.34;7277688;40;20260;31
2023/12/13 00:54:03;;;;;;;2.45;1.25;;;;;;;9.86;98.32;97651.97;7225884;40;20238;31
2023/12/13 00:59:24;;;;;;;3.00;1.20;;;;;;;9.82;98.53;97651.53;7238609;40;20265;31
2023/12/13 01:05:00;;;;;;;2.85;1.30;;;;;;;9.76;98.62;97646.94;7237000;40;20231;31
2023/12/13 01:10:21;;;;;;;3.55;1.20;;;;;;;9.77;99.22;97659.38;7226534;40;20246;31
2023/12/13 01:15:53;;;;;;;3.30;1.30;;;;;;;9.72;99.27;97645.69;7252919;40;20374;31
2023/12/13 01:21:28;;;;;;;1.40;1.00;;;;;;;9.72;99.04;97650.25;7242462;40;20245;31
2023/12/13 01:26:46;;;;;;;1.80;1.10;;;;;;;9.73;98.69;97651.91;7230845;40;20257;31
2023/12/13 01:32:07;;;;;;;1.10;0.90;;;;;;;9.69;98.50;97662.25;7257684;40;20241;31
2023/12/13 01:37:44;;;;;;;1.23;0.90;;;;;;;9.67;99.32;97658.91;7228740;40;20253;31
2023/12/13 01:43:19;;;;;;;2.10;1.03;;;;;;;9.62;98.62;97660.53;7251490;40;21493;31
2023/12/13 01:48:54;;;;;;;2.95;1.00;;;;;;;9.58;98.40;97664.62;7257293;39;20327;31
2023/12/13 01:54:28;;;;;;;2.20;1.00;;;;;;;9.54;98.60;97664.22;7234097;40;20266;31
2023/12/13 02:05:07;;;;;;;3.50;1.13;;;;;;;9.54;98.33;97655.31;7169612;40;20270;31
2023/12/13 02:10:43;;;;;;;2.40;1.10;;;;;;;9.52;98.68;97639.38;7180473;40;20254;31
2023/12/13 02:16:18;;;;;;;2.60;1.03;;;;;;;9.49;98.67;97637.06;7197518;40;20263;31
2023/12/13 02:21:53;;;;;;;1.23;0.77;;;;;;;9.43;99.12;97644.06;7178580;40;20254;31
2023/12/13 02:27:29;;;;;;;5.70;1.00;;;;;;;9.41;99.06;97645.31;7150625;40;20254;31
2023/12/13 02:33:04;;;;;;;2.30;1.00;;;;;;;9.38;99.63;97645.72;7188278;40;20372;31
2023/12/13 02:38:36;;;;;;;2.90;1.10;;;;;;;9.37;99.59;97631.44;7135915;40;20290;31
2023/12/13 02:44:12;;;;;;;2.13;1.00;;;;;;;9.29;99.58;97622.69;7145965;40;20250;31
2023/12/13 02:49:47;;;;;;;6.57;1.30;;;;;;;9.27;99.38;97613.97;7197500;40;20249;31
2023/12/13 02:55:22;;;;;;;3.47;1.13;;;;;;;9.32;99.09;97611.53;7157610;40;20267;31
2023/12/13 03:05:59;;;;;;;4.77;1.13;;;;;;;9.39;98.52;97621.28;7202638;40;20312;31
2023/12/13 03:11:20;;;;;;;3.90;1.00;;;;;;;9.43;98.47;97616.37;7203062;40;20285;31
2023/12/13 03:16:52;;;;;;;5.04;1.46;;;;;;;9.39;99.18;97604.34;7191936;40;20498;31
2023/12/13 03:22:26;;;;;;;11.20;4.65;;;;;;;9.36;99.42;97602.88;7201218;40;20257;31
2023/12/13 03:28:02;;;;;;;10.57;4.27;;;;;;;9.34;99.88;97598.72;7186774;40;20238;31
2023/12/13 03:33:22;;;;;;;5.60;2.70;;;;;;;9.34;100.00;97596.03;7127832;40;20262;31
2023/12/13 03:38:56;;;;;;;4.57;1.80;;;;;;;9.29;99.76;97577.81;7157778;40;20242;31
2023/12/13 03:44:17;;;;;;;3.30;1.70;;;;;;;9.32;100.00;97590.03;7192131;40;20246;31
2023/12/13 03:49:36;;;;;;;3.50;1.40;;;;;;;9.29;100.00;97590.44;7178486;40;20259;31
2023/12/13 03:55:13;;;;;;;3.60;1.40;;;;;;;9.25;100.00;97579.25;7197068;40;20246;31
2023/12/13 04:00:33;;;;;;;5.70;2.30;;;;;;;9.27;100.00;97568.28;7167317;40;20337;31
2023/12/13 04:05:54;;;;;;;6.45;2.10;;;;;;;9.26;100.00;97559.38;7162003;40;20347;31
2023/12/13 04:11:28;;;;;;;4.13;1.40;;;;;;;9.32;100.00;97547.00;7180043;40;20381;31
2023/12/13 04:17:03;;;;;;;2.40;1.50;;;;;;;9.38;99.91;97540.84;7194036;40;20242;31
2023/12/13 04:22:38;;;;;;;2.60;1.30;;;;;;;9.33;100.00;97546.81;7227094;40;21431;31
2023/12/13 04:28:13;;;;;;;2.45;1.30;;;;;;;9.25;100.00;97538.09;7202117;40;20250;31
2023/12/13 04:33:47;;;;;;;5.20;1.57;;;;;;;9.26;99.67;97547.81;7170618;40;20247;31
2023/12/13 04:39:08;;;;;;;4.25;1.55;;;;;;;9.25;100.00;97538.94;7187651;40;20243;31
2023/12/13 04:44:44;;;;;;;3.00;1.30;;;;;;;9.27;100.00;97538.69;7239801;40;20241;31
2023/12/13 04:50:18;;;;;;;6.70;1.63;;;;;;;9.29;100.00;97531.28;7174842;40;20242;31
2023/12/13 04:55:53;;;;;;;3.23;1.43;;;;;;;9.34;100.00;97528.84;7198647;40;20329;31
2023/12/13 05:01:24;;;;;;;6.45;1.45;;;;;;;9.34;100.00;97520.75;6984684;40;21037;31
2023/12/13 05:06:44;;;;;;;2.80;1.30;;;;;;;9.38;100.00;97524.72;7179834;40;21495;31
2023/12/13 05:12:05;;;;;;;4.10;1.45;;;;;;;9.35;100.00;97525.09;7179002;40;20249;31
2023/12/13 05:17:39;;;;;;;2.90;1.30;;;;;;;9.30;100.00;97514.13;7210748;40;20397;31
2023/12/13 05:22:59;;;;;;;2.97;1.37;;;;;;;9.30;100.00;97514.13;7201274;40;20246;31
2023/12/13 05:28:35;;;;;;;3.95;1.50;;;;;;;9.30;100.00;97506.06;7203125;40;20255;31
2023/12/13 05:34:11;;;;;;;5.63;3.07;;;;;;;9.30;100.00;97498.00;7231001;40;20310;31
2023/12/13 05:39:31;;;;;;;3.40;2.00;;;;;;;9.36;100.00;97508.78;7268472;40;20261;31
2023/12/13 05:44:52;;;;;;;6.77;2.40;;;;;;;9.35;99.90;97504.41;7247937;40;20477;31
2023/12/13 05:50:29;;;;;;;3.90;2.20;;;;;;;9.30;99.92;97496.13;7232643;39;20268;31
2023/12/13 05:56:04;;;;;;;4.15;2.10;;;;;;;9.23;99.98;97503.34;7237039;40;20237;31
2023/12/13 06:01:24;;;;;;;4.20;1.40;;;;;;;9.19;100.00;97501.25;7265730;40;20384;31
2023/12/13 06:07:01;;;;;;;3.15;1.70;;;;;;;9.15;100.00;97492.75;7318554;39;20233;31
2023/12/13 06:12:36;;;;;;;5.03;1.97;;;;;;;9.18;100.00;97497.72;7233063;40;20384;31
2023/12/13 06:18:11;;;;;;;5.53;1.80;;;;;;;9.19;100.00;97493.19;7209615;40;20253;31
2023/12/13 06:23:47;;;;;;;3.77;1.80;;;;;;;9.12;100.00;97482.41;7217658;40;20238;31
2023/12/13 06:29:22;;;;;;;6.03;1.80;;;;;;;9.13;100.00;97477.87;7219545;40;21304;31
2023/12/13 06:34:42;;;;;;;8.25;3.20;;;;;;;9.14;100.00;97477.66;7217419;40;20249;31
2023/12/13 06:40:20;;;;;;;4.10;2.00;;;;;;;9.15;100.00;97487.38;7250884;40;20269;31
2023/12/13 06:50:59;;;;;;;3.93;2.50;;;;;;;9.11;100.00;97479.91;7184187;40;20419;31
2023/12/13 07:01:37;;;;;;;43.50;27.15;;;;;;;9.13;100.00;97480.56;7186443;40;20374;31
2023/12/13 07:07:15;;;;;;;22.00;10.90;;;;;;;9.07;100.00;97487.56;7240516;40;20346;31
2023/12/13 07:12:32;;;;;;;12.55;8.30;;;;;;;9.06;100.00;97485.87;7245892;40;20441;31
2023/12/13 07:18:09;;;;;;;20.80;13.67;;;;;;;9.10;100.00;97492.53;7217264;40;20246;31
2023/12/13 07:23:31;;;;;;;10.05;6.80;;;;;;;9.12;100.00;97497.72;7158689;40;20247;31
2023/12/13 07:28:50;;;;;;;7.40;4.90;;;;;;;9.10;100.00;97497.88;7194169;40;20444;31
2023/12/13 07:34:27;;;;;;;6.77;3.53;;;;;;;9.03;100.00;97483.59;7233676;40;20253;31
2023/12/13 07:40:03;;;;;;;9.43;4.50;;;;;;;9.00;100.00;97494.72;7245691;40;20245;31
2023/12/13 07:45:37;;;;;;;5.32;3.97;;;;;;;9.01;100.00;97488.34;7237537;40;20246;31
2023/12/13 07:56:17;;;;;;;5.00;3.20;;;;;;;9.05;100.00;97484.22;7221359;40;20276;31
2023/12/13 08:06:56;;;;;;;3.85;1.70;;;;;;;9.11;100.00;97488.81;7266299;40;20286;31
2023/12/13 08:12:33;;;;;;;3.15;1.70;;;;;;;9.11;100.00;97493.34;7217485;40;20425;31
2023/12/13 08:17:52;;;;;;;4.00;2.33;;;;;;;9.13;100.00;97499.38;7155884;40;20287;31
2023/12/13 08:28:33;;;;;;;5.80;2.70;;;;;;;9.04;100.00;97498.69;7174939;40;20277;31
2023/12/13 08:38:58;;;;;;;8.00;4.63;;;;;;;9.09;100.00;97498.91;7242234;40;20260;31
2023/12/13 08:44:35;;;;;;;5.27;3.90;;;;;;;9.12;100.00;97495.00;7255743;40;20272;31
2023/12/13 08:49:55;;;;;;;9.40;5.50;;;;;;;9.18;100.00;97495.03;7212144;40;20271;31
2023/12/13 08:55:17;;;;;;;6.93;4.37;;;;;;;9.14;100.00;97495.63;7219900;40;20313;31
2023/12/13 09:00:53;;;;;;;4.90;2.80;;;;;;;9.07;100.00;97487.56;7213418;40;20265;31
2023/12/13 09:06:28;;;;;;;5.70;3.50;;;;;;;9.16;100.00;97483.66;7197251;40;20436;31
2023/12/13 09:12:03;;;;;;;8.77;4.00;;;;;;;9.27;100.00;97479.56;7158095;40;20302;31
2023/12/13 09:17:40;;;;;;;5.85;3.95;;;;;;;9.34;100.00;97475.88;7176444;40;20258;31
2023/12/13 09:23:00;;;;;;;5.00;2.40;;;;;;;9.44;100.00;97480.88;7163714;40;20385;31
2023/12/13 09:28:35;;;;;;;4.15;2.55;;;;;;;9.46;100.00;97492.25;7213073;40;20242;31
2023/12/13 09:34:11;;;;;;;4.20;2.50;;;;;;;9.49;100.00;97494.53;7214935;40;20324;31
2023/12/13 09:39:46;;;;;;;6.30;3.07;;;;;;;9.49;100.00;97499.91;7122254;40;20352;31
2023/12/13 09:45:20;;;;;;;4.83;2.50;;;;;;;9.43;100.00;97503.44;7160649;40;20269;31
2023/12/13 09:50:57;;;;;;;3.85;2.30;;;;;;;9.45;100.00;97506.72;7206014;40;20247;31
2023/12/13 09:56:18;;;;;;;6.25;2.90;;;;;;;9.53;100.00;97503.88;7230392;40;20299;31
2023/12/13 10:01:35;;;;;;;4.27;2.40;;;;;;;9.62;100.00;97510.72;7261345;40;20259;31
2023/12/13 10:07:11;;;;;;;3.80;2.57;;;;;;;9.61;100.00;97510.94;7235847;40;20404;31
2023/12/13 10:17:49;;;;;;;8.30;2.60;;;;;;;9.72;100.00;97505.78;7233272;40;20254;31
2023/12/13 10:23:25;;;;;;;5.07;2.20;;;;;;;9.71;100.00;97506.00;7235646;40;20257;31
2023/12/13 10:29:00;;;;;;;2.97;1.43;;;;;;;9.69;100.00;97495.44;7203802;40;20237;31
2023/12/13 10:34:37;;;;;;;2.97;1.73;;;;;;;9.70;100.00;97486.31;7257858;40;20253;31
2023/12/13 10:40:09;;;;;;;1.85;1.42;;;;;;;9.69;99.95;97478.47;7200650;40;20282;31
2023/12/13 10:45:45;;;;;;;3.80;1.60;;;;;;;9.74;100.00;97478.69;7226305;40;20348;31
2023/12/13 10:51:19;;;;;;;8.55;2.00;;;;;;;9.86;100.00;97480.59;7231686;40;21337;31
2023/12/13 10:56:56;;;;;;;2.77;1.87;;;;;;;10.10;99.93;97475.63;7197403;40;20242;31
2023/12/13 11:02:30;;;;;;;3.28;2.00;;;;;;;10.11;97.81;97483.50;7178096;40;21497;31
2023/12/13 11:08:06;;;;;;;4.07;1.70;;;;;;;10.16;97.88;97482.91;7199740;40;20319;31
2023/12/13 11:13:42;;;;;;;4.23;1.60;;;;;;;10.21;97.40;97478.59;7219614;40;20267;31
2023/12/13 11:19:19;;;;;;;3.40;1.40;;;;;;;10.11;96.79;97477.28;7161905;40;20298;31
2023/12/13 11:24:52;;;;;;;4.40;1.20;;;;;;;10.08;95.75;97483.09;7176344;40;20420;31
2023/12/13 11:35:32;;;;;;;8.78;3.74;;;;;;;10.13;96.00;97480.63;7239727;40;20402;31
2023/12/13 11:41:07;;;;;;;4.80;2.85;;;;;;;10.18;95.46;97454.75;7295091;39;20261;31
2023/12/13 11:46:42;;;;;;;5.00;1.80;;;;;;;10.19;94.96;97442.13;7239552;40;20387;31
2023/12/13 11:52:15;;;;;;;2.90;1.50;;;;;;;10.25;95.47;97446.69;6975130;40;21184;31
2023/12/13 11:57:50;;;;;;;4.25;1.60;;;;;;;10.25;94.67;97438.59;7186733;40;20466;31
2023/12/13 12:03:11;;;;;;;3.90;1.43;;;;;;;10.22;94.66;97444.41;7183325;40;20243;31
2023/12/13 12:08:47;;;;;;;4.50;1.50;;;;;;;10.17;94.05;97439.66;7208904;40;20243;31
2023/12/13 12:14:20;;;;;;;3.77;1.43;;;;;;;10.15;93.59;97447.09;7261446;40;21406;31
2023/12/13 12:19:56;;;;;;;4.10;1.90;;;;;;;10.13;94.09;97441.06;7211239;40;20253;31
2023/12/13 12:25:32;;;;;;;3.75;1.70;;;;;;;10.10;93.79;97444.16;7197575;40;20224;31
2023/12/13 12:31:08;;;;;;;3.95;2.30;;;;;;;10.09;94.21;97430.94;7172928;40;20591;31
2023/12/13 12:36:43;;;;;;;4.25;2.10;;;;;;;10.09;94.30;97437.09;7199586;40;20238;31
2023/12/13 12:42:21;;;;;;;3.17;1.67;;;;;;;10.13;94.77;97432.16;7158485;40;20381;31
2023/12/13 12:47:41;;;;;;;5.35;1.85;;;;;;;10.12;93.81;97433.19;7178789;40;20316;31
2023/12/13 12:53:17;;;;;;;3.15;1.55;;;;;;;10.07;94.10;97430.28;7196054;40;20377;31
2023/12/13 12:58:53;;;;;;;4.67;1.40;;;;;;;10.06;94.33;97428.62;7176222;40;20406;31
2023/12/13 13:04:28;;;;;;;5.33;1.77;;;;;;;10.05;93.59;97443.13;7174794;40;20286;31
2023/12/13 13:15:08;;;;;;;4.97;1.50;;;;;;;10.03;93.27;97442.50;7221611;40;20301;31
2023/12/13 13:20:43;;;;;;;3.90;1.60;;;;;;;10.04;93.44;97444.16;7216544;40;20242;31
2023/12/13 13:26:03;;;;;;;6.53;2.03;;;;;;;10.01;93.76;97449.94;7216797;40;20273;31
2023/12/13 13:36:41;;;;;;;3.73;1.50;;;;;;;9.85;92.91;97446.63;7213434;40;20273;31
2023/12/13 13:47:21;;;;;;;2.70;1.30;;;;;;;9.74;93.21;97447.22;7338506;39;20408;31
2023/12/13 13:52:57;;;;;;;2.90;1.50;;;;;;;9.65;92.52;97445.78;7240418;40;20296;31
2023/12/13 13:58:17;;;;;;;3.40;2.10;;;;;;;9.70;93.51;97448.66;7270521;40;20256;31
2023/12/13 14:03:35;;;;;;;5.30;2.23;;;;;;;9.71;93.88;97444.94;7275059;40;20498;31
2023/12/13 14:09:13;;;;;;;3.13;1.90;;;;;;;9.75;94.09;97458.81;7268736;39;20324;31
2023/12/13 14:19:38;;;;;;;8.30;5.03;;;;;;;9.74;93.34;97466.06;7257071;40;20290;31
2023/12/13 14:25:15;;;;;;;5.20;3.60;;;;;;;9.65;93.10;97471.84;7225763;40;20272;31
2023/12/13 14:30:50;;;;;;;2.75;1.70;;;;;;;9.58;94.14;97479.88;7270380;40;20339;31
2023/12/13 14:36:12;;;;;;;11.97;6.33;;;;;;;9.52;94.05;97483.41;7256660;40;20237;31
2023/12/13 14:41:48;;;;;;;5.50;3.70;;;;;;;9.50;94.02;97486.28;7268978;40;20245;31
2023/12/13 14:47:23;;;;;;;6.30;3.10;;;;;;;9.62;94.49;97496.44;7247039;40;20239;31
2023/12/13 14:53:00;;;;;;;3.25;1.90;;;;;;;9.58;93.18;97485.25;7193912;40;20400;31
2023/12/13 14:58:38;;;;;;;3.25;2.10;;;;;;;9.54;92.86;97494.78;7225157;40;20448;31
2023/12/13 15:03:56;;;;;;;19.10;11.77;;;;;;;9.56;93.50;97497.28;7210917;40;20507;31
2023/12/13 15:09:31;;;;;;;5.30;3.60;;;;;;;9.47;93.10;97500.13;7171764;40;20318;31
2023/12/13 15:15:07;;;;;;;3.83;2.47;;;;;;;9.43;92.97;97493.47;7122777;40;20335;31
2023/12/13 15:20:27;;;;;;;7.65;3.65;;;;;;;9.46;93.48;97503.03;7165046;40;20297;31
2023/12/13 15:26:03;;;;;;;6.13;3.00;;;;;;;9.45;93.50;97512.12;7215789;40;20238;31
2023/12/13 15:31:39;;;;;;;6.40;2.90;;;;;;;9.37;92.69;97510.44;7236462;40;20242;31
2023/12/13 15:36:59;;;;;;;3.57;2.60;;;;;;;9.24;92.91;97514.91;7267493;40;20975;31
2023/12/13 15:42:35;;;;;;;4.50;2.40;;;;;;;9.13;92.99;97515.50;7295603;40;20363;31
2023/12/13 15:48:08;;;;;;;3.50;2.63;;;;;;;9.02;92.55;97531.13;7240939;40;20267;31
2023/12/13 15:58:47;;;;;;;5.63;4.33;;;;;;;8.89;93.09;97543.66;7198580;40;20252;31
2023/12/13 16:04:23;;;;;;;12.40;8.10;;;;;;;8.83;94.06;97547.94;7163588;40;20253;31
2023/12/13 16:09:41;;;;;;;8.17;5.37;;;;;;;8.88;94.20;97555.44;7220947;40;20338;31
2023/12/13 16:20:24;;;;;;;8.47;4.60;;;;;;;8.88;94.14;97564.31;7230168;40;20262;31
2023/12/13 16:25:43;;;;;;;11.90;6.80;;;;;;;8.88;94.48;97564.31;7198818;40;20263;31
2023/12/13 16:31:17;;;;;;;8.20;4.55;;;;;;;8.85;94.98;97566.56;7229768;40;20256;31
2023/12/13 16:36:53;;;;;;;6.00;2.90;;;;;;;8.85;95.11;97566.56;7215549;40;20402;31
2023/12/13 16:42:18;;;;;;;3.45;2.70;;;;;;;8.90;94.96;97570.34;7185892;40;20247;31
2023/12/13 16:47:48;;;;;;;5.10;3.00;;;;;;;8.94;94.94;97576.97;7211802;40;20480;31
2023/12/13 16:53:24;;;;;;;3.60;2.87;;;;;;;8.94;94.81;97590.41;7206364;40;20255;31
2023/12/13 16:58:45;;;;;;;5.20;2.90;;;;;;;8.96;95.40;97593.72;7193491;40;20369;31
2023/12/13 17:09:22;;;;;;;5.85;3.50;;;;;;;8.94;94.77;97600.34;7203280;40;20281;31
2023/12/13 17:20:03;;;;;;;6.57;4.50;;;;;;;8.82;95.10;97615.31;7236603;40;20273;31
2023/12/13 17:30:43;;;;;;;11.57;7.40;;;;;;;8.87;95.48;97627.12;7252339;40;20268;31
2023/12/13 17:41:23;;;;;;;7.60;4.90;;;;;;;8.85;95.68;97652.53;7261655;40;20268;31
2023/12/13 17:46:58;;;;;;;6.75;4.70;;;;;;;8.80;96.00;97655.81;7237911;40;20343;31
2023/12/13 17:52:20;;;;;;;7.47;4.13;;;;;;;8.79;96.05;97672.09;7237848;39;20449;31
2023/12/13 17:57:41;;;;;;;10.03;5.73;;;;;;;8.83;95.37;97679.59;7283344;40;21534;31
2023/12/13 18:03:16;;;;;;;7.15;4.30;;;;;;;8.78;95.71;97683.87;7249418;40;20303;31
2023/12/13 18:08:50;;;;;;;8.50;3.77;;;;;;;8.76;95.19;97697.50;7221562;40;20327;31
2023/12/13 18:14:27;;;;;;;4.40;3.30;;;;;;;8.70;95.09;97695.59;7217881;40;20386;31
2023/12/13 18:20:04;;;;;;;5.30;3.40;;;;;;;8.68;95.81;97702.19;7159026;40;20485;31
2023/12/13 18:25:36;;;;;;;4.40;3.20;;;;;;;8.67;95.66;97712.09;7158011;40;20259;31
2023/12/13 18:31:12;;;;;;;4.50;3.20;;;;;;;8.63;95.97;97709.97;7166598;40;20248;31
2023/12/13 18:36:48;;;;;;;6.55;4.10;;;;;;;8.57;95.72;97715.09;7119025;40;20722;31
2023/12/13 18:42:09;;;;;;;9.07;5.33;;;;;;;8.59;95.89;97726.47;7169608;40;20375;31
2023/12/13 18:47:30;;;;;;;7.10;5.30;;;;;;;8.54;95.33;97742.31;7207723;40;20369;31
2023/12/13 18:53:07;;;;;;;5.57;4.13;;;;;;;8.48;95.57;97743.06;7242572;40;20260;31
2023/12/13 19:03:32;;;;;;;4.20;2.20;;;;;;;8.55;96.31;97757.44;7267891;40;20277;31
2023/12/13 19:09:08;;;;;;;4.43;2.13;;;;;;;8.56;95.93;97758.22;7020734;40;21018;31
2023/12/13 19:14:28;;;;;;;3.30;2.15;;;;;;;8.60;96.24;97765.72;7230106;40;20260;31
2023/12/13 19:20:03;;;;;;;3.10;1.90;;;;;;;8.61;95.79;97771.94;7219560;40;20376;31
2023/12/13 19:25:40;;;;;;;3.80;1.93;;;;;;;8.56;95.62;97775.19;7137747;40;20323;31
2023/12/13 19:36:21;;;;;;;2.47;1.90;;;;;;;8.66;96.12;97798.22;7160119;40;20244;31
2023/12/13 19:41:58;;;;;;;20.60;11.30;;;;;;;8.62;95.41;97802.31;7199584;40;20253;31
2023/12/13 19:47:19;;;;;;;9.55;5.30;;;;;;;8.64;96.56;97805.66;7193661;40;20240;31
2023/12/13 19:52:39;;;;;;;4.95;3.40;;;;;;;8.63;95.93;97820.94;7236535;40;20259;31
2023/12/13 19:58:16;;;;;;;6.50;3.50;;;;;;;8.60;95.96;97816.75;7223145;40;20679;31
2023/12/13 20:03:37;;;;;;;11.80;5.10;;;;;;;8.65;96.13;97829.59;7240531;40;20233;31
2023/12/13 20:09:16;;;;;;;28.33;12.17;;;;;;;8.69;96.74;97830.91;7273236;39;20643;31
2023/12/13 20:14:48;;;;;;;9.47;3.40;;;;;;;8.62;96.62;97840.75;7186376;40;20336;31
2023/12/13 20:20:09;;;;;;;5.70;2.90;;;;;;;8.64;96.52;97837.88;7129883;40;20255;31
2023/12/13 20:25:30;;;;;;;5.07;2.63;;;;;;;8.65;96.63;97839.50;7176710;40;20254;31
2023/12/13 20:31:06;;;;;;;4.40;2.40;;;;;;;8.62;96.37;97851.47;7211563;39;20241;31
2023/12/13 20:36:27;;;;;;;4.50;2.20;;;;;;;8.67;96.50;97859.81;7200071;40;20273;31
2023/12/13 20:41:48;;;;;;;4.60;2.33;;;;;;;8.70;95.65;97859.44;7225864;40;20245;31
2023/12/13 20:47:24;;;;;;;3.73;2.17;;;;;;;8.66;96.68;97874.25;7256436;40;20284;31
2023/12/13 20:52:46;;;;;;;4.37;2.20;;;;;;;8.72;95.93;97888.78;7204620;40;20315;31
2023/12/13 20:58:05;;;;;;;4.33;2.10;;;;;;;8.77;96.34;97897.13;7229270;40;20365;31
2023/12/13 21:03:41;;;;;;;4.10;1.80;;;;;;;8.74;95.77;97892.94;7232346;40;20706;31
2023/12/13 21:09:01;;;;;;;3.53;1.87;;;;;;;8.78;95.69;97902.31;7204045;40;20786;31
2023/12/13 21:14:21;;;;;;;5.30;1.80;;;;;;;8.74;95.21;97895.63;7227021;40;20286;31
2023/12/13 21:19:55;;;;;;;3.50;1.80;;;;;;;8.69;95.14;97906.09;7274378;40;20298;31
2023/12/13 21:25:31;;;;;;;2.70;1.70;;;;;;;8.67;95.47;97915.38;7222819;40;20227;31
2023/12/13 21:30:50;;;;;;;5.37;2.83;;;;;;;8.69;95.73;97927.59;7224565;40;20249;31
2023/12/13 21:36:26;;;;;;;4.20;2.23;;;;;;;8.66;95.96;97927.13;7235478;40;20265;31
2023/12/13 21:41:47;;;;;;;4.15;2.50;;;;;;;8.63;95.47;97933.72;7189553;40;20250;31
2023/12/13 21:47:25;;;;;;;5.20;2.10;;;;;;;8.65;95.62;97947.78;7204677;40;20265;31
2023/12/13 21:52:59;;;;;;;3.20;2.35;;;;;;;8.64;96.14;97948.81;7153926;40;20679;31
2023/12/13 21:58:34;;;;;;;4.65;2.45;;;;;;;8.64;96.27;97969.47;7140524;40;20842;31
2023/12/13 22:03:55;;;;;;;4.20;2.57;;;;;;;8.69;95.86;97981.31;7141076;40;20240;31
2023/12/13 22:09:30;;;;;;;6.05;3.00;;;;;;;8.68;95.84;97979.66;7148405;40;20352;31
2023/12/13 22:15:06;;;;;;;6.70;3.47;;;;;;;8.72;96.05;97997.09;7170051;40;20231;31
2023/12/13 22:20:26;;;;;;;19.70;11.30;;;;;;;8.77;95.63;98000.06;7158881;40;20251;31
2023/12/13 22:26:00;;;;;;;11.25;4.80;;;;;;;8.75;95.82;98010.13;7168652;40;20400;31
2023/12/13 22:31:21;;;;;;;10.17;5.83;;;;;;;8.78;95.90;98009.75;7196844;40;20379;31
2023/12/13 22:36:56;;;;;;;9.02;4.43;;;;;;;8.74;95.74;98026.44;7163966;40;21477;31
2023/12/13 22:42:32;;;;;;;6.53;3.67;;;;;;;8.71;96.40;98029.50;7137795;40;20258;31
2023/12/13 22:48:08;;;;;;;6.50;4.00;;;;;;;8.70;96.01;98035.88;7170355;40;20247;31
2023/12/13 22:53:43;;;;;;;3.87;2.93;;;;;;;8.62;96.36;98044.84;7204642;40;20261;31
2023/12/13 22:59:20;;;;;;;8.45;3.20;;;;;;;8.62;96.77;98055.59;7179250;40;20262;31
2023/12/13 23:09:45;;;;;;;5.90;2.95;;;;;;;8.68;96.77;98071.00;7190560;40;20427;31
2023/12/13 23:15:21;;;;;;;5.93;2.87;;;;;;;8.63;95.96;98077.91;7270399;39;20700;31
2023/12/13 23:20:42;;;;;;;4.50;2.67;;;;;;;8.67;96.51;98080.06;7270665;40;20242;31
2023/12/13 23:26:17;;;;;;;6.80;3.35;;;;;;;8.65;96.15;98082.09;7278894;40;20249;31
2023/12/13 23:31:53;;;;;;;4.83;3.20;;;;;;;8.65;96.75;98082.09;7229830;40;20273;31
2023/12/13 23:42:33;;;;;;;7.03;3.27;;;;;;;8.55;96.93;98097.63;7202048;40;20259;31
2023/12/13 23:53:11;;;;;;;5.10;3.30;;;;;;;8.53;96.92;98108.56;7266304;39;20278;31
